createdAt,value
2023-03-11T00:00:48.019Z,8.88
2023-03-11T00:05:46.332Z,7.03
2023-03-11T00:10:45.565Z,7.10
2023-03-11T00:15:45.434Z,6.25
2023-03-11T00:20:45.534Z,6.20
2023-03-11T00:25:44.652Z,9.10
2023-03-11T00:30:43.084Z,8.60
2023-03-11T00:35:41.386Z,7.07
2023-03-11T00:40:39.429Z,7.53
2023-03-11T00:45:36.394Z,6.65
2023-03-11T00:50:35.975Z,11.38
2023-03-11T00:55:35.505Z,6.90
2023-03-11T01:00:37.204Z,8.05
2023-03-11T01:05:34.718Z,6.57
2023-03-11T01:10:34.873Z,7.72
2023-03-11T01:15:34.482Z,7.45
2023-03-11T01:20:32.080Z,5.97
2023-03-11T01:25:29.602Z,8.98
2023-03-11T01:30:29.361Z,5.70
2023-03-11T01:35:28.032Z,12.35
2023-03-11T01:40:29.614Z,7.95
2023-03-11T01:45:41.187Z,6.53
2023-03-11T01:50:42.969Z,6.32
2023-03-11T01:55:41.021Z,5.18
2023-03-11T02:00:38.725Z,9.43
2023-03-11T02:05:36.140Z,8.93
2023-03-11T02:10:33.226Z,7.38
2023-03-11T02:15:30.845Z,5.22
2023-03-11T02:20:38.704Z,5.93
2023-03-11T02:25:47.021Z,7.18
2023-03-11T02:30:46.785Z,6.20
2023-03-11T02:35:44.479Z,6.32
2023-03-11T02:40:51.104Z,7.68
2023-03-11T02:45:51.060Z,5.10
2023-03-11T02:50:48.349Z,8.00
2023-03-11T02:55:47.255Z,10.27
2023-03-11T03:00:44.291Z,6.03
2023-03-11T03:05:44.864Z,8.65
2023-03-11T03:10:42.134Z,9.65
2023-03-11T03:15:39.091Z,7.18
2023-03-11T03:20:36.742Z,6.00
2023-03-11T03:25:35.072Z,4.65
2023-03-11T03:30:36.691Z,8.43
2023-03-11T03:35:34.206Z,5.65
2023-03-11T03:41:01.154Z,5.72
2023-03-11T03:46:00.364Z,5.55
2023-03-11T03:51:06.119Z,7.00
2023-03-11T03:56:05.635Z,5.20
2023-03-11T04:01:04.802Z,8.32
2023-03-11T04:06:07.399Z,6.80
2023-03-11T04:11:05.412Z,7.85
2023-03-11T04:16:06.192Z,9.23
2023-03-11T04:21:05.651Z,10.10
2023-03-11T04:26:03.419Z,8.18
2023-03-11T04:31:01.409Z,12.02
2023-03-11T04:35:59.926Z,8.45
2023-03-11T04:41:00.236Z,7.35
2023-03-11T04:45:57.826Z,6.57
2023-03-11T04:50:55.967Z,6.20
2023-03-11T04:55:54.288Z,7.47
2023-03-11T05:00:52.288Z,6.13
2023-03-11T05:05:49.529Z,5.93
2023-03-11T05:10:52.659Z,7.43
2023-03-11T05:15:50.739Z,8.02
2023-03-11T05:20:47.921Z,6.65
2023-03-11T05:25:46.211Z,6.93
2023-03-11T05:30:44.025Z,5.32
2023-03-11T05:35:42.284Z,6.75
2023-03-11T05:40:40.082Z,7.90
2023-03-11T05:45:37.275Z,9.27
2023-03-11T05:50:35.243Z,9.57
2023-03-11T05:55:33.545Z,9.63
2023-03-11T06:00:36.159Z,8.65
2023-03-11T06:05:35.712Z,10.32
2023-03-11T06:10:32.940Z,8.38
2023-03-11T06:15:34.823Z,6.88
2023-03-11T06:20:38.166Z,7.45
2023-03-11T06:25:35.697Z,6.43
2023-03-11T06:30:33.218Z,7.78
2023-03-11T06:35:39.492Z,10.85
2023-03-11T06:40:39.118Z,5.78
2023-03-11T06:45:38.954Z,5.72
2023-03-11T06:50:38.833Z,4.50
2023-03-11T06:55:43.425Z,5.78
2023-03-11T07:00:42.678Z,4.60
2023-03-11T07:05:53.498Z,5.43
2023-03-11T07:11:04.994Z,5.57
2023-03-11T07:16:06.426Z,5.20
2023-03-11T07:21:08.135Z,4.45
2023-03-11T07:26:08.985Z,3.75
2023-03-11T07:31:35.641Z,4.65
2023-03-11T07:36:41.503Z,4.57
2023-03-11T07:41:39.224Z,4.85
2023-03-11T07:46:36.161Z,5.82
2023-03-11T07:51:35.860Z,4.57
2023-03-11T07:56:34.868Z,3.30
2023-03-11T08:01:35.687Z,2.58
2023-03-11T08:06:34.278Z,3.60
2023-03-11T08:11:32.228Z,3.30
2023-03-11T08:16:46.948Z,2.00
2023-03-11T08:21:47.534Z,2.47
2023-03-11T08:27:21.006Z,2.10
2023-03-11T08:32:37.832Z,1.98
2023-03-11T08:37:42.874Z,1.75
2023-03-11T08:42:50.394Z,2.35
2023-03-11T08:47:51.597Z,2.83
2023-03-11T08:52:49.795Z,3.17
2023-03-11T08:57:48.039Z,2.13
2023-03-11T09:02:50.710Z,2.25
2023-03-11T09:07:51.124Z,2.00
2023-03-11T09:12:47.906Z,2.03
2023-03-11T09:17:47.820Z,2.38
2023-03-11T09:22:46.014Z,3.22
2023-03-11T09:27:55.233Z,2.13
2023-03-11T09:32:52.549Z,2.42
2023-03-11T09:37:49.942Z,3.22
2023-03-11T09:42:56.253Z,2.78
2023-03-11T09:48:10.035Z,2.38
2023-03-11T09:53:23.633Z,2.60
2023-03-11T09:58:36.294Z,4.30
2023-03-11T10:03:34.843Z,3.47
2023-03-11T10:08:38.122Z,2.97
2023-03-11T10:13:40.352Z,3.33
2023-03-11T10:18:49.250Z,2.97
2023-03-11T10:24:01.572Z,2.45
2023-03-11T10:29:07.840Z,4.47
2023-03-11T10:34:15.064Z,2.72
2023-03-11T10:39:12.928Z,3.75
2023-03-11T10:44:15.454Z,2.97
2023-03-11T10:49:14.448Z,3.25
2023-03-11T10:54:22.850Z,3.38
2023-03-11T10:59:25.213Z,2.25
2023-03-11T11:04:39.420Z,1.98
2023-03-11T11:09:36.414Z,3.20
2023-03-11T11:14:49.555Z,2.38
2023-03-11T11:19:48.113Z,2.00
2023-03-11T11:24:46.454Z,2.50
2023-03-11T11:29:44.395Z,3.20
2023-03-11T11:34:42.315Z,5.20
2023-03-11T11:39:50.802Z,2.20
2023-03-11T11:44:52.066Z,2.95
2023-03-11T11:49:54.854Z,4.47
2023-03-11T11:54:58.064Z,2.03
2023-03-11T11:59:57.601Z,2.97
2023-03-11T12:05:02.959Z,1.92
2023-03-11T12:15:24.729Z,3.45
2023-03-11T12:20:33.126Z,2.03
2023-03-11T12:25:51.593Z,2.13
2023-03-11T12:30:55.158Z,3.72
2023-03-11T12:35:56.951Z,3.15
2023-03-11T12:41:00.147Z,2.65
2023-03-11T12:45:59.270Z,4.47
2023-03-11T12:50:58.346Z,3.65
2023-03-11T12:56:03.076Z,4.57
2023-03-11T13:02:01.631Z,2.72
2023-03-11T13:07:34.434Z,3.80
2023-03-11T13:12:50.243Z,2.10
2023-03-11T13:18:00.333Z,7.18
2023-03-11T13:23:26.333Z,2.42
2023-03-11T13:28:57.084Z,2.33
2023-03-11T13:33:56.125Z,1.58
2023-03-11T13:39:30.124Z,2.80
2023-03-11T13:44:31.091Z,1.05
2023-03-11T13:49:37.206Z,2.22
2023-03-11T13:54:41.856Z,1.40
2023-03-11T13:59:38.839Z,1.33
2023-03-11T14:04:37.199Z,1.70
2023-03-11T14:09:34.062Z,2.30
2023-03-11T14:14:43.011Z,2.08
2023-03-11T14:19:39.957Z,2.40
2023-03-11T14:24:38.404Z,1.40
2023-03-11T14:29:37.879Z,1.95
2023-03-11T14:34:40.685Z,1.73
2023-03-11T14:39:38.663Z,2.92
2023-03-11T14:44:40.871Z,3.67
2023-03-11T14:49:39.507Z,1.50
2023-03-11T14:54:37.512Z,3.20
2023-03-11T14:59:37.733Z,4.30
2023-03-11T15:04:39.383Z,3.33
2023-03-11T15:09:40.298Z,2.70
2023-03-11T15:14:51.086Z,9.88
2023-03-11T15:19:48.531Z,2.25
2023-03-11T15:24:50.678Z,1.98
2023-03-11T15:29:52.240Z,1.90
2023-03-11T15:35:02.416Z,3.10
2023-03-11T15:40:12.435Z,3.22
2023-03-11T15:45:15.149Z,3.05
2023-03-11T15:50:24.750Z,4.55
2023-03-11T15:55:24.779Z,2.78
2023-03-11T16:00:24.692Z,3.83
2023-03-11T16:05:23.659Z,3.47
2023-03-11T16:10:23.549Z,3.67
2023-03-11T16:15:27.801Z,3.13
2023-03-11T16:20:27.885Z,4.60
2023-03-11T16:25:30.699Z,3.90
2023-03-11T16:30:30.826Z,2.85
2023-03-11T16:35:28.582Z,13.18
2023-03-11T16:40:31.587Z,3.95
2023-03-11T16:45:32.730Z,3.38
2023-03-11T16:50:39.679Z,6.20
2023-03-11T16:55:37.536Z,3.40
2023-03-11T17:00:38.711Z,3.78
2023-03-11T17:05:36.050Z,5.15
2023-03-11T17:10:38.788Z,4.13
2023-03-11T17:15:37.929Z,3.35
2023-03-11T17:20:38.454Z,3.63
2023-03-11T17:25:39.041Z,4.32
2023-03-11T17:30:43.021Z,3.70
2023-03-11T17:35:40.637Z,2.75
2023-03-11T17:40:40.096Z,4.10
2023-03-11T17:45:40.009Z,2.15
2023-03-11T17:50:38.449Z,5.47
2023-03-11T17:55:45.962Z,6.00
2023-03-11T18:00:43.959Z,4.85
2023-03-11T18:05:42.996Z,4.68
2023-03-11T18:10:40.951Z,3.67
2023-03-11T18:15:43.196Z,3.00
2023-03-11T18:20:50.717Z,5.75
2023-03-11T18:25:51.939Z,6.32
2023-03-11T18:30:49.204Z,3.75
2023-03-11T18:35:47.511Z,3.92
2023-03-11T18:40:47.010Z,5.57
2023-03-11T18:45:49.992Z,3.17
2023-03-11T18:50:52.086Z,3.88
2023-03-11T18:55:49.075Z,4.35
2023-03-11T19:00:46.616Z,2.22
2023-03-11T19:05:48.483Z,2.15
2023-03-11T19:10:47.712Z,4.90
2023-03-11T19:15:45.268Z,3.42
2023-03-11T19:20:44.113Z,3.00
2023-03-11T19:25:45.791Z,5.38
2023-03-11T19:30:55.583Z,5.10
2023-03-11T19:36:07.852Z,6.68
2023-03-11T19:41:07.392Z,2.72
2023-03-11T19:46:10.093Z,4.55
2023-03-11T19:51:07.256Z,2.75
2023-03-11T19:56:08.229Z,3.67
2023-03-11T20:01:05.785Z,3.17
2023-03-11T20:06:06.738Z,5.65
2023-03-11T20:11:04.958Z,2.58
2023-03-11T20:16:06.614Z,3.13
2023-03-11T20:21:07.522Z,5.70
2023-03-11T20:26:06.249Z,4.18
2023-03-11T20:31:09.643Z,4.10
2023-03-11T20:36:08.688Z,4.40
2023-03-11T20:41:07.485Z,2.33
2023-03-11T20:46:05.920Z,4.07
2023-03-11T20:51:05.875Z,2.10
2023-03-11T20:56:06.816Z,5.75
2023-03-11T21:01:11.583Z,3.05
2023-03-11T21:06:17.233Z,2.00
2023-03-11T21:16:11.824Z,5.15
2023-03-11T21:21:11.018Z,4.13
2023-03-11T21:26:08.712Z,2.90
2023-03-11T21:31:08.184Z,7.05
2023-03-11T21:36:07.140Z,8.57
2023-03-11T21:41:06.206Z,6.25
2023-03-11T21:46:04.715Z,4.93
2023-03-11T21:51:02.375Z,5.85
2023-03-11T21:55:59.635Z,7.47
2023-03-11T22:00:56.688Z,3.42
2023-03-11T22:05:58.357Z,6.43
2023-03-11T22:10:55.663Z,2.40
2023-03-11T22:15:52.621Z,5.43
2023-03-11T22:20:49.466Z,8.52
2023-03-11T22:25:49.480Z,5.65
2023-03-11T22:30:46.424Z,6.25
2023-03-11T22:35:49.823Z,7.00
2023-03-11T22:40:47.675Z,5.75
2023-03-11T22:45:44.972Z,4.72
2023-03-11T22:50:43.710Z,6.00
2023-03-11T22:55:41.039Z,7.25
2023-03-11T23:00:39.078Z,3.95
2023-03-11T23:05:41.170Z,4.95
2023-03-11T23:10:41.436Z,4.25
2023-03-11T23:15:40.935Z,6.05
2023-03-11T23:20:40.036Z,4.88
2023-03-11T23:25:38.392Z,7.85
2023-03-11T23:30:35.359Z,12.27
2023-03-11T23:35:33.162Z,4.70
2023-03-11T23:40:30.033Z,6.78
2023-03-11T23:45:26.915Z,6.78
2023-03-11T23:50:23.784Z,8.00
2023-03-11T23:55:21.360Z,9.20
